sensor_id;sensor_type;location;lat;lon;timestamp;P1;durP1;ratioP1;P2;durP2;ratioP2
69789;SDS011;57064;52.046;4.800;2022-09-09T00:01:37;6.63;;;3.85;;
69789;SDS011;57064;52.046;4.800;2022-09-09T00:04:30;7.43;;;4.22;;
69789;SDS011;57064;52.046;4.800;2022-09-09T00:10:03;6.13;;;4.28;;
69789;SDS011;57064;52.046;4.800;2022-09-09T00:12:42;9.57;;;4.65;;
69789;SDS011;57064;52.046;4.800;2022-09-09T00:15:20;10.15;;;4.50;;
69789;SDS011;57064;52.046;4.800;2022-09-09T00:20:23;7.05;;;4.85;;
69789;SDS011;57064;52.046;4.800;2022-09-09T00:23:15;12.82;;;6.43;;
69789;SDS011;57064;52.046;4.800;2022-09-09T00:25:54;7.25;;;4.95;;
69789;SDS011;57064;52.046;4.800;2022-09-09T00:28:23;12.65;;;5.70;;
69789;SDS011;57064;52.046;4.800;2022-09-09T00:30:51;6.88;;;5.28;;
69789;SDS011;57064;52.046;4.800;2022-09-09T00:33:22;9.75;;;5.95;;
69789;SDS011;57064;52.046;4.800;2022-09-09T00:35:58;13.18;;;5.82;;
69789;SDS011;57064;52.046;4.800;2022-09-09T00:38:28;10.52;;;5.60;;
69789;SDS011;57064;52.046;4.800;2022-09-09T00:43:33;13.73;;;5.97;;
69789;SDS011;57064;52.046;4.800;2022-09-09T00:56:54;12.93;;;7.68;;
69789;SDS011;57064;52.046;4.800;2022-09-09T01:02:01;10.85;;;6.97;;
69789;SDS011;57064;52.046;4.800;2022-09-09T01:04:48;12.07;;;7.50;;
69789;SDS011;57064;52.046;4.800;2022-09-09T01:07:16;13.07;;;7.40;;
69789;SDS011;57064;52.046;4.800;2022-09-09T01:10:17;14.80;;;7.80;;
69789;SDS011;57064;52.046;4.800;2022-09-09T01:12:59;16.20;;;9.23;;
69789;SDS011;57064;52.046;4.800;2022-09-09T01:15:28;12.80;;;7.85;;
69789;SDS011;57064;52.046;4.800;2022-09-09T01:18:06;13.05;;;7.28;;
69789;SDS011;57064;52.046;4.800;2022-09-09T01:23:55;22.65;;;8.45;;
69789;SDS011;57064;52.046;4.800;2022-09-09T01:28:51;16.95;;;7.75;;
69789;SDS011;57064;52.046;4.800;2022-09-09T01:31:28;18.17;;;7.82;;
69789;SDS011;57064;52.046;4.800;2022-09-09T01:33:57;16.50;;;7.88;;
69789;SDS011;57064;52.046;4.800;2022-09-09T01:38:53;16.23;;;8.25;;
69789;SDS011;57064;52.046;4.800;2022-09-09T01:41:19;19.65;;;9.25;;
69789;SDS011;57064;52.046;4.800;2022-09-09T01:43:45;12.27;;;7.22;;
69789;SDS011;57064;52.046;4.800;2022-09-09T01:46:12;14.27;;;7.75;;
69789;SDS011;57064;52.046;4.800;2022-09-09T01:48:40;15.38;;;8.07;;
69789;SDS011;57064;52.046;4.800;2022-09-09T01:51:08;15.00;;;8.35;;
69789;SDS011;57064;52.046;4.800;2022-09-09T01:53:35;19.73;;;8.48;;
69789;SDS011;57064;52.046;4.800;2022-09-09T01:56:07;16.73;;;7.72;;
69789;SDS011;57064;52.046;4.800;2022-09-09T01:58:44;16.08;;;7.82;;
69789;SDS011;57064;52.046;4.800;2022-09-09T02:01:53;14.13;;;7.63;;
69789;SDS011;57064;52.046;4.800;2022-09-09T02:04:34;15.25;;;8.25;;
69789;SDS011;57064;52.046;4.800;2022-09-09T02:07:19;18.65;;;7.63;;
69789;SDS011;57064;52.046;4.800;2022-09-09T02:09:47;14.48;;;7.47;;
69789;SDS011;57064;52.046;4.800;2022-09-09T02:12:17;18.23;;;8.45;;
69789;SDS011;57064;52.046;4.800;2022-09-09T02:14:53;16.02;;;8.10;;
69789;SDS011;57064;52.046;4.800;2022-09-09T02:17:28;17.20;;;8.57;;
69789;SDS011;57064;52.046;4.800;2022-09-09T02:20:08;19.80;;;9.45;;
69789;SDS011;57064;52.046;4.800;2022-09-09T02:22:38;16.20;;;8.70;;
69789;SDS011;57064;52.046;4.800;2022-09-09T02:25:08;19.88;;;8.13;;
69789;SDS011;57064;52.046;4.800;2022-09-09T02:27:37;20.77;;;9.25;;
69789;SDS011;57064;52.046;4.800;2022-09-09T02:30:04;18.10;;;8.95;;
69789;SDS011;57064;52.046;4.800;2022-09-09T02:32:31;17.10;;;9.88;;
69789;SDS011;57064;52.046;4.800;2022-09-09T02:35:00;18.95;;;9.48;;
69789;SDS011;57064;52.046;4.800;2022-09-09T02:37:37;22.17;;;9.40;;
69789;SDS011;57064;52.046;4.800;2022-09-09T02:40:05;16.85;;;9.82;;
69789;SDS011;57064;52.046;4.800;2022-09-09T02:42:38;21.52;;;9.88;;
69789;SDS011;57064;52.046;4.800;2022-09-09T02:45:05;16.98;;;8.20;;
69789;SDS011;57064;52.046;4.800;2022-09-09T02:47:37;19.73;;;9.70;;
69789;SDS011;57064;52.046;4.800;2022-09-09T02:50:15;18.23;;;10.05;;
69789;SDS011;57064;52.046;4.800;2022-09-09T02:58:03;19.35;;;8.80;;
69789;SDS011;57064;52.046;4.800;2022-09-09T03:00:32;17.50;;;9.27;;
69789;SDS011;57064;52.046;4.800;2022-09-09T03:03:01;17.67;;;8.48;;
69789;SDS011;57064;52.046;4.800;2022-09-09T03:05:28;21.05;;;9.60;;
69789;SDS011;57064;52.046;4.800;2022-09-09T03:07:54;18.85;;;8.88;;
69789;SDS011;57064;52.046;4.800;2022-09-09T03:10:20;17.58;;;8.70;;
69789;SDS011;57064;52.046;4.800;2022-09-09T03:12:46;20.55;;;8.90;;
69789;SDS011;57064;52.046;4.800;2022-09-09T03:15:12;21.20;;;9.18;;
69789;SDS011;57064;52.046;4.800;2022-09-09T03:17:39;22.77;;;9.13;;
69789;SDS011;57064;52.046;4.800;2022-09-09T03:20:06;19.27;;;9.60;;
69789;SDS011;57064;52.046;4.800;2022-09-09T03:22:33;19.02;;;9.38;;
69789;SDS011;57064;52.046;4.800;2022-09-09T03:24:59;22.35;;;10.32;;
69789;SDS011;57064;52.046;4.800;2022-09-09T03:27:27;18.70;;;9.18;;
69789;SDS011;57064;52.046;4.800;2022-09-09T03:29:54;23.33;;;9.85;;
69789;SDS011;57064;52.046;4.800;2022-09-09T03:32:20;16.73;;;9.40;;
69789;SDS011;57064;52.046;4.800;2022-09-09T03:34:51;22.83;;;10.23;;
69789;SDS011;57064;52.046;4.800;2022-09-09T03:37:18;20.85;;;9.75;;
69789;SDS011;57064;52.046;4.800;2022-09-09T03:39:45;27.17;;;11.70;;
69789;SDS011;57064;52.046;4.800;2022-09-09T03:42:14;21.95;;;9.80;;
69789;SDS011;57064;52.046;4.800;2022-09-09T03:44:43;22.92;;;11.02;;
69789;SDS011;57064;52.046;4.800;2022-09-09T03:47:14;23.25;;;10.48;;
69789;SDS011;57064;52.046;4.800;2022-09-09T03:49:42;22.15;;;9.73;;
69789;SDS011;57064;52.046;4.800;2022-09-09T03:52:08;24.52;;;10.15;;
69789;SDS011;57064;52.046;4.800;2022-09-09T03:54:34;24.10;;;11.18;;
69789;SDS011;57064;52.046;4.800;2022-09-09T03:57:00;28.17;;;9.93;;
69789;SDS011;57064;52.046;4.800;2022-09-09T03:59:27;22.00;;;9.25;;
69789;SDS011;57064;52.046;4.800;2022-09-09T04:01:53;21.75;;;10.45;;
69789;SDS011;57064;52.046;4.800;2022-09-09T04:04:19;25.95;;;10.38;;
69789;SDS011;57064;52.046;4.800;2022-09-09T04:06:46;23.98;;;9.52;;
69789;SDS011;57064;52.046;4.800;2022-09-09T04:09:13;23.58;;;10.20;;
69789;SDS011;57064;52.046;4.800;2022-09-09T04:11:39;20.40;;;10.02;;
69789;SDS011;57064;52.046;4.800;2022-09-09T04:14:05;21.60;;;9.50;;
69789;SDS011;57064;52.046;4.800;2022-09-09T04:16:32;17.90;;;8.30;;
69789;SDS011;57064;52.046;4.800;2022-09-09T04:18:59;19.00;;;8.60;;
69789;SDS011;57064;52.046;4.800;2022-09-09T04:21:26;23.83;;;9.65;;
69789;SDS011;57064;52.046;4.800;2022-09-09T04:23:52;26.83;;;9.55;;
69789;SDS011;57064;52.046;4.800;2022-09-09T04:26:18;19.42;;;9.00;;
69789;SDS011;57064;52.046;4.800;2022-09-09T04:28:45;22.58;;;8.95;;
69789;SDS011;57064;52.046;4.800;2022-09-09T04:31:17;23.92;;;9.43;;
69789;SDS011;57064;52.046;4.800;2022-09-09T04:33:46;17.98;;;8.52;;
69789;SDS011;57064;52.046;4.800;2022-09-09T04:36:13;17.60;;;8.02;;
69789;SDS011;57064;52.046;4.800;2022-09-09T04:38:39;22.25;;;7.82;;
69789;SDS011;57064;52.046;4.800;2022-09-09T04:41:05;18.92;;;8.93;;
69789;SDS011;57064;52.046;4.800;2022-09-09T04:43:32;17.85;;;8.35;;
69789;SDS011;57064;52.046;4.800;2022-09-09T04:45:59;21.77;;;7.75;;
69789;SDS011;57064;52.046;4.800;2022-09-09T04:48:25;21.30;;;10.00;;
69789;SDS011;57064;52.046;4.800;2022-09-09T04:53:22;18.98;;;8.60;;
69789;SDS011;57064;52.046;4.800;2022-09-09T04:55:48;19.65;;;7.78;;
69789;SDS011;57064;52.046;4.800;2022-09-09T04:58:14;23.85;;;8.23;;
69789;SDS011;57064;52.046;4.800;2022-09-09T05:00:40;19.52;;;7.75;;
69789;SDS011;57064;52.046;4.800;2022-09-09T05:03:07;15.75;;;6.57;;
69789;SDS011;57064;52.046;4.800;2022-09-09T05:05:34;21.83;;;7.63;;
69789;SDS011;57064;52.046;4.800;2022-09-09T05:08:03;18.80;;;7.60;;
69789;SDS011;57064;52.046;4.800;2022-09-09T05:10:31;17.90;;;7.15;;
69789;SDS011;57064;52.046;4.800;2022-09-09T05:12:59;18.38;;;8.07;;
69789;SDS011;57064;52.046;4.800;2022-09-09T05:15:25;19.58;;;6.43;;
69789;SDS011;57064;52.046;4.800;2022-09-09T05:17:51;18.60;;;7.57;;
69789;SDS011;57064;52.046;4.800;2022-09-09T05:20:18;20.50;;;7.43;;
69789;SDS011;57064;52.046;4.800;2022-09-09T05:22:44;18.20;;;8.13;;
69789;SDS011;57064;52.046;4.800;2022-09-09T05:25:10;17.77;;;7.47;;
69789;SDS011;57064;52.046;4.800;2022-09-09T05:27:36;21.17;;;7.38;;
69789;SDS011;57064;52.046;4.800;2022-09-09T05:30:02;18.92;;;6.90;;
69789;SDS011;57064;52.046;4.800;2022-09-09T05:32:29;20.73;;;7.32;;
69789;SDS011;57064;52.046;4.800;2022-09-09T05:34:58;17.38;;;7.03;;
69789;SDS011;57064;52.046;4.800;2022-09-09T05:37:24;21.40;;;7.07;;
69789;SDS011;57064;52.046;4.800;2022-09-09T05:39:50;16.45;;;7.72;;
69789;SDS011;57064;52.046;4.800;2022-09-09T05:42:16;18.35;;;6.78;;
69789;SDS011;57064;52.046;4.800;2022-09-09T05:44:42;24.23;;;7.78;;
69789;SDS011;57064;52.046;4.800;2022-09-09T05:47:09;16.58;;;6.95;;
69789;SDS011;57064;52.046;4.800;2022-09-09T05:49:36;17.98;;;7.18;;
69789;SDS011;57064;52.046;4.800;2022-09-09T05:52:02;17.70;;;7.25;;
69789;SDS011;57064;52.046;4.800;2022-09-09T05:54:29;17.60;;;7.20;;
69789;SDS011;57064;52.046;4.800;2022-09-09T05:56:55;19.33;;;6.93;;
69789;SDS011;57064;52.046;4.800;2022-09-09T05:59:21;18.33;;;6.40;;
69789;SDS011;57064;52.046;4.800;2022-09-09T06:01:48;18.08;;;7.03;;
69789;SDS011;57064;52.046;4.800;2022-09-09T06:04:14;23.13;;;7.95;;
69789;SDS011;57064;52.046;4.800;2022-09-09T06:06:41;22.23;;;6.97;;
69789;SDS011;57064;52.046;4.800;2022-09-09T06:09:08;17.08;;;6.63;;
69789;SDS011;57064;52.046;4.800;2022-09-09T06:11:35;16.08;;;6.40;;
69789;SDS011;57064;52.046;4.800;2022-09-09T06:14:03;19.33;;;6.65;;
69789;SDS011;57064;52.046;4.800;2022-09-09T06:16:30;17.38;;;6.65;;
69789;SDS011;57064;52.046;4.800;2022-09-09T06:19:00;13.30;;;5.85;;
69789;SDS011;57064;52.046;4.800;2022-09-09T06:21:32;17.90;;;5.72;;
69789;SDS011;57064;52.046;4.800;2022-09-09T06:24:02;12.75;;;4.95;;
69789;SDS011;57064;52.046;4.800;2022-09-09T06:26:32;13.70;;;4.28;;
69789;SDS011;57064;52.046;4.800;2022-09-09T06:29:00;14.38;;;5.43;;
69789;SDS011;57064;52.046;4.800;2022-09-09T06:31:29;7.07;;;3.50;;
69789;SDS011;57064;52.046;4.800;2022-09-09T06:33:57;10.30;;;3.85;;
69789;SDS011;57064;52.046;4.800;2022-09-09T06:36:25;12.68;;;3.50;;
69789;SDS011;57064;52.046;4.800;2022-09-09T06:38:52;10.43;;;3.60;;
69789;SDS011;57064;52.046;4.800;2022-09-09T06:41:20;9.70;;;3.63;;
69789;SDS011;57064;52.046;4.800;2022-09-09T06:43:47;9.07;;;3.08;;
69789;SDS011;57064;52.046;4.800;2022-09-09T06:46:23;7.70;;;3.28;;
69789;SDS011;57064;52.046;4.800;2022-09-09T06:48:54;9.75;;;3.15;;
69789;SDS011;57064;52.046;4.800;2022-09-09T06:51:22;7.82;;;3.28;;
69789;SDS011;57064;52.046;4.800;2022-09-09T06:53:51;12.75;;;3.42;;
69789;SDS011;57064;52.046;4.800;2022-09-09T06:56:25;9.88;;;3.17;;
69789;SDS011;57064;52.046;4.800;2022-09-09T06:58:56;13.55;;;4.10;;
69789;SDS011;57064;52.046;4.800;2022-09-09T07:01:26;9.85;;;4.07;;
69789;SDS011;57064;52.046;4.800;2022-09-09T07:03:55;11.15;;;3.45;;
69789;SDS011;57064;52.046;4.800;2022-09-09T07:06:25;9.82;;;3.30;;
69789;SDS011;57064;52.046;4.800;2022-09-09T07:08:56;11.75;;;3.58;;
69789;SDS011;57064;52.046;4.800;2022-09-09T07:11:25;11.25;;;3.20;;
69789;SDS011;57064;52.046;4.800;2022-09-09T07:13:54;8.57;;;2.95;;
69789;SDS011;57064;52.046;4.800;2022-09-09T07:16:22;13.13;;;3.88;;
69789;SDS011;57064;52.046;4.800;2022-09-09T07:18:52;10.75;;;3.97;;
69789;SDS011;57064;52.046;4.800;2022-09-09T07:21:22;12.10;;;3.88;;
69789;SDS011;57064;52.046;4.800;2022-09-09T07:23:52;8.32;;;2.97;;
69789;SDS011;57064;52.046;4.800;2022-09-09T07:26:20;8.65;;;3.33;;
69789;SDS011;57064;52.046;4.800;2022-09-09T07:28:48;8.82;;;3.60;;
69789;SDS011;57064;52.046;4.800;2022-09-09T07:31:15;9.70;;;4.20;;
69789;SDS011;57064;52.046;4.800;2022-09-09T07:33:45;8.55;;;4.00;;
69789;SDS011;57064;52.046;4.800;2022-09-09T07:36:16;11.85;;;4.50;;
69789;SDS011;57064;52.046;4.800;2022-09-09T07:38:55;10.43;;;3.92;;
69789;SDS011;57064;52.046;4.800;2022-09-09T07:41:26;8.90;;;3.78;;
69789;SDS011;57064;52.046;4.800;2022-09-09T07:44:04;6.93;;;3.50;;
69789;SDS011;57064;52.046;4.800;2022-09-09T07:46:32;7.78;;;3.45;;
69789;SDS011;57064;52.046;4.800;2022-09-09T07:48:59;8.35;;;3.58;;
69789;SDS011;57064;52.046;4.800;2022-09-09T07:51:26;7.93;;;3.33;;
69789;SDS011;57064;52.046;4.800;2022-09-09T07:53:55;9.48;;;3.30;;
69789;SDS011;57064;52.046;4.800;2022-09-09T07:56:23;7.80;;;3.30;;
69789;SDS011;57064;52.046;4.800;2022-09-09T07:58:51;5.40;;;3.50;;
69789;SDS011;57064;52.046;4.800;2022-09-09T08:01:23;8.07;;;3.22;;
69789;SDS011;57064;52.046;4.800;2022-09-09T08:03:56;9.57;;;3.47;;
69789;SDS011;57064;52.046;4.800;2022-09-09T08:06:24;7.03;;;3.28;;
69789;SDS011;57064;52.046;4.800;2022-09-09T08:08:52;9.68;;;3.38;;
69789;SDS011;57064;52.046;4.800;2022-09-09T08:11:19;8.80;;;3.95;;
69789;SDS011;57064;52.046;4.800;2022-09-09T08:13:48;7.75;;;3.50;;
69789;SDS011;57064;52.046;4.800;2022-09-09T08:16:16;11.20;;;4.10;;
69789;SDS011;57064;52.046;4.800;2022-09-09T08:18:48;10.32;;;4.10;;
69789;SDS011;57064;52.046;4.800;2022-09-09T08:21:16;12.90;;;4.28;;
69789;SDS011;57064;52.046;4.800;2022-09-09T08:23:46;8.20;;;4.30;;
69789;SDS011;57064;52.046;4.800;2022-09-09T08:26:16;11.45;;;3.88;;
69789;SDS011;57064;52.046;4.800;2022-09-09T08:28:53;10.73;;;3.30;;
69789;SDS011;57064;52.046;4.800;2022-09-09T08:31:23;10.07;;;3.80;;
69789;SDS011;57064;52.046;4.800;2022-09-09T08:36:20;7.25;;;3.20;;
69789;SDS011;57064;52.046;4.800;2022-09-09T08:38:49;8.65;;;3.53;;
69789;SDS011;57064;52.046;4.800;2022-09-09T08:47:22;10.38;;;3.30;;
69789;SDS011;57064;52.046;4.800;2022-09-09T08:52:51;5.75;;;2.70;;
69789;SDS011;57064;52.046;4.800;2022-09-09T08:57:53;5.25;;;2.72;;
69789;SDS011;57064;52.046;4.800;2022-09-09T09:00:22;9.68;;;2.97;;
69789;SDS011;57064;52.046;4.800;2022-09-09T09:03:02;8.27;;;2.70;;
69789;SDS011;57064;52.046;4.800;2022-09-09T09:10:50;6.55;;;3.00;;
69789;SDS011;57064;52.046;4.800;2022-09-09T09:16:21;10.13;;;2.85;;
69789;SDS011;57064;52.046;4.800;2022-09-09T09:18:53;8.30;;;2.97;;
69789;SDS011;57064;52.046;4.800;2022-09-09T09:21:39;5.05;;;2.97;;
69789;SDS011;57064;52.046;4.800;2022-09-09T09:24:16;9.60;;;2.90;;
69789;SDS011;57064;52.046;4.800;2022-09-09T09:27:07;10.00;;;2.40;;
69789;SDS011;57064;52.046;4.800;2022-09-09T09:29:39;10.30;;;3.42;;
69789;SDS011;57064;52.046;4.800;2022-09-09T09:32:09;5.18;;;2.58;;
69789;SDS011;57064;52.046;4.800;2022-09-09T09:37:12;7.57;;;2.42;;
69789;SDS011;57064;52.046;4.800;2022-09-09T09:39:44;11.02;;;2.75;;
69789;SDS011;57064;52.046;4.800;2022-09-09T09:42:12;9.80;;;2.45;;
69789;SDS011;57064;52.046;4.800;2022-09-09T09:44:39;10.45;;;2.92;;
69789;SDS011;57064;52.046;4.800;2022-09-09T09:47:07;9.40;;;2.83;;
69789;SDS011;57064;52.046;4.800;2022-09-09T09:49:37;7.13;;;3.57;;
69789;SDS011;57064;52.046;4.800;2022-09-09T09:52:04;9.27;;;3.20;;
69789;SDS011;57064;52.046;4.800;2022-09-09T09:54:38;6.72;;;2.88;;
69789;SDS011;57064;52.046;4.800;2022-09-09T09:57:16;10.98;;;3.72;;
69789;SDS011;57064;52.046;4.800;2022-09-09T09:59:42;9.07;;;3.40;;
69789;SDS011;57064;52.046;4.800;2022-09-09T10:02:22;7.10;;;3.45;;
69789;SDS011;57064;52.046;4.800;2022-09-09T10:05:04;9.65;;;3.33;;
69789;SDS011;57064;52.046;4.800;2022-09-09T10:07:38;8.32;;;3.58;;
69789;SDS011;57064;52.046;4.800;2022-09-09T10:10:04;7.45;;;3.85;;
69789;SDS011;57064;52.046;4.800;2022-09-09T10:18:28;7.55;;;2.58;;
69789;SDS011;57064;52.046;4.800;2022-09-09T10:27:20;12.98;;;2.40;;
69789;SDS011;57064;52.046;4.800;2022-09-09T10:30:10;7.80;;;2.30;;
69789;SDS011;57064;52.046;4.800;2022-09-09T10:32:48;8.90;;;2.38;;
69789;SDS011;57064;52.046;4.800;2022-09-09T10:40:28;3.53;;;1.80;;
69789;SDS011;57064;52.046;4.800;2022-09-09T10:54:26;7.80;;;1.70;;
69789;SDS011;57064;52.046;4.800;2022-09-09T10:57:17;3.45;;;2.10;;
69789;SDS011;57064;52.046;4.800;2022-09-09T10:59:57;5.00;;;2.17;;
69789;SDS011;57064;52.046;4.800;2022-09-09T11:02:30;6.97;;;2.38;;
69789;SDS011;57064;52.046;4.800;2022-09-09T11:07:49;6.53;;;2.40;;
69789;SDS011;57064;52.046;4.800;2022-09-09T11:10:28;7.80;;;1.90;;
69789;SDS011;57064;52.046;4.800;2022-09-09T11:13:07;5.47;;;2.05;;
69789;SDS011;57064;52.046;4.800;2022-09-09T11:15:48;4.85;;;1.90;;
69789;SDS011;57064;52.046;4.800;2022-09-09T11:18:21;4.68;;;2.08;;
69789;SDS011;57064;52.046;4.800;2022-09-09T11:20:49;6.38;;;2.17;;
69789;SDS011;57064;52.046;4.800;2022-09-09T11:23:20;4.97;;;1.83;;
69789;SDS011;57064;52.046;4.800;2022-09-09T11:25:54;2.83;;;1.30;;
69789;SDS011;57064;52.046;4.800;2022-09-09T11:31:07;5.00;;;1.77;;
69789;SDS011;57064;52.046;4.800;2022-09-09T11:33:48;5.28;;;1.63;;
69789;SDS011;57064;52.046;4.800;2022-09-09T11:37:06;4.63;;;1.65;;
69789;SDS011;57064;52.046;4.800;2022-09-09T11:39:38;4.35;;;2.10;;
69789;SDS011;57064;52.046;4.800;2022-09-09T11:44:39;5.18;;;1.80;;
69789;SDS011;57064;52.046;4.800;2022-09-09T11:47:16;3.53;;;1.90;;
69789;SDS011;57064;52.046;4.800;2022-09-09T11:49:55;5.65;;;1.80;;
69789;SDS011;57064;52.046;4.800;2022-09-09T11:52:40;7.28;;;1.85;;
69789;SDS011;57064;52.046;4.800;2022-09-09T11:55:32;6.18;;;2.42;;
69789;SDS011;57064;52.046;4.800;2022-09-09T11:58:02;8.82;;;2.60;;
69789;SDS011;57064;52.046;4.800;2022-09-09T12:03:03;4.68;;;2.00;;
69789;SDS011;57064;52.046;4.800;2022-09-09T12:05:40;6.82;;;2.60;;
69789;SDS011;57064;52.046;4.800;2022-09-09T12:08:10;6.82;;;2.70;;
69789;SDS011;57064;52.046;4.800;2022-09-09T12:10:52;4.82;;;3.00;;
69789;SDS011;57064;52.046;4.800;2022-09-09T12:13:21;7.05;;;2.75;;
69789;SDS011;57064;52.046;4.800;2022-09-09T12:15:50;3.65;;;3.00;;
69789;SDS011;57064;52.046;4.800;2022-09-09T12:18:34;7.07;;;3.10;;
69789;SDS011;57064;52.046;4.800;2022-09-09T12:21:25;5.32;;;3.10;;
69789;SDS011;57064;52.046;4.800;2022-09-09T12:26:39;7.30;;;2.75;;
69789;SDS011;57064;52.046;4.800;2022-09-09T12:32:13;4.80;;;2.97;;
69789;SDS011;57064;52.046;4.800;2022-09-09T12:34:47;8.45;;;3.40;;
69789;SDS011;57064;52.046;4.800;2022-09-09T12:40:21;9.32;;;3.50;;
69789;SDS011;57064;52.046;4.800;2022-09-09T12:42:49;7.88;;;3.92;;
69789;SDS011;57064;52.046;4.800;2022-09-09T12:45:17;9.20;;;3.70;;
69789;SDS011;57064;52.046;4.800;2022-09-09T12:47:54;8.32;;;3.50;;
69789;SDS011;57064;52.046;4.800;2022-09-09T12:50:35;8.80;;;4.13;;
69789;SDS011;57064;52.046;4.800;2022-09-09T12:53:07;7.70;;;4.30;;
69789;SDS011;57064;52.046;4.800;2022-09-09T12:55:48;6.20;;;3.60;;
69789;SDS011;57064;52.046;4.800;2022-09-09T12:58:16;6.70;;;3.72;;
69789;SDS011;57064;52.046;4.800;2022-09-09T13:00:54;6.78;;;3.65;;
69789;SDS011;57064;52.046;4.800;2022-09-09T13:03:21;7.40;;;4.28;;
69789;SDS011;57064;52.046;4.800;2022-09-09T13:05:48;10.40;;;3.72;;
69789;SDS011;57064;52.046;4.800;2022-09-09T13:08:16;7.95;;;3.47;;
69789;SDS011;57064;52.046;4.800;2022-09-09T13:13:29;8.02;;;3.67;;
69789;SDS011;57064;52.046;4.800;2022-09-09T13:16:18;8.60;;;3.90;;
69789;SDS011;57064;52.046;4.800;2022-09-09T13:18:46;6.25;;;3.95;;
69789;SDS011;57064;52.046;4.800;2022-09-09T13:21:13;6.65;;;3.63;;
69789;SDS011;57064;52.046;4.800;2022-09-09T13:23:39;8.95;;;3.67;;
69789;SDS011;57064;52.046;4.800;2022-09-09T13:26:06;7.05;;;3.80;;
69789;SDS011;57064;52.046;4.800;2022-09-09T13:28:50;7.25;;;3.67;;
69789;SDS011;57064;52.046;4.800;2022-09-09T13:31:39;10.52;;;4.20;;
69789;SDS011;57064;52.046;4.800;2022-09-09T13:36:59;7.57;;;3.45;;
69789;SDS011;57064;52.046;4.800;2022-09-09T13:39:32;7.95;;;3.85;;
69789;SDS011;57064;52.046;4.800;2022-09-09T13:42:00;9.30;;;4.10;;
69789;SDS011;57064;52.046;4.800;2022-09-09T13:44:35;8.07;;;3.50;;
69789;SDS011;57064;52.046;4.800;2022-09-09T13:47:20;8.57;;;3.97;;
69789;SDS011;57064;52.046;4.800;2022-09-09T13:49:52;8.02;;;3.35;;
69789;SDS011;57064;52.046;4.800;2022-09-09T13:52:18;6.65;;;3.67;;
69789;SDS011;57064;52.046;4.800;2022-09-09T13:54:50;10.60;;;3.78;;
69789;SDS011;57064;52.046;4.800;2022-09-09T13:57:23;5.75;;;3.50;;
69789;SDS011;57064;52.046;4.800;2022-09-09T13:59:50;7.78;;;3.10;;
69789;SDS011;57064;52.046;4.800;2022-09-09T14:02:17;7.32;;;2.15;;
69789;SDS011;57064;52.046;4.800;2022-09-09T14:04:44;5.07;;;2.28;;
69789;SDS011;57064;52.046;4.800;2022-09-09T14:07:14;4.75;;;1.90;;
69789;SDS011;57064;52.046;4.800;2022-09-09T14:09:41;4.95;;;2.10;;
69789;SDS011;57064;52.046;4.800;2022-09-09T14:12:10;6.13;;;1.75;;
69789;SDS011;57064;52.046;4.800;2022-09-09T14:14:37;3.38;;;1.38;;
69789;SDS011;57064;52.046;4.800;2022-09-09T14:17:03;5.05;;;1.50;;
69789;SDS011;57064;52.046;4.800;2022-09-09T14:19:29;3.30;;;1.40;;
69789;SDS011;57064;52.046;4.800;2022-09-09T14:21:56;4.50;;;1.13;;
69789;SDS011;57064;52.046;4.800;2022-09-09T14:24:22;3.35;;;1.45;;
69789;SDS011;57064;52.046;4.800;2022-09-09T14:26:50;3.42;;;1.30;;
69789;SDS011;57064;52.046;4.800;2022-09-09T14:29:16;4.85;;;1.52;;
69789;SDS011;57064;52.046;4.800;2022-09-09T14:31:42;4.38;;;1.40;;
69789;SDS011;57064;52.046;4.800;2022-09-09T14:34:08;3.42;;;1.65;;
69789;SDS011;57064;52.046;4.800;2022-09-09T14:36:36;5.47;;;1.55;;
69789;SDS011;57064;52.046;4.800;2022-09-09T14:39:03;3.45;;;1.95;;
69789;SDS011;57064;52.046;4.800;2022-09-09T14:41:29;4.53;;;2.03;;
69789;SDS011;57064;52.046;4.800;2022-09-09T14:43:55;4.93;;;1.92;;
69789;SDS011;57064;52.046;4.800;2022-09-09T14:46:22;4.60;;;2.28;;
69789;SDS011;57064;52.046;4.800;2022-09-09T14:48:51;7.80;;;2.90;;
69789;SDS011;57064;52.046;4.800;2022-09-09T14:51:19;5.28;;;2.70;;
69789;SDS011;57064;52.046;4.800;2022-09-09T14:53:53;5.18;;;2.45;;
69789;SDS011;57064;52.046;4.800;2022-09-09T14:56:23;5.60;;;3.28;;
69789;SDS011;57064;52.046;4.800;2022-09-09T14:58:52;7.20;;;2.42;;
69789;SDS011;57064;52.046;4.800;2022-09-09T15:01:20;6.93;;;2.50;;
69789;SDS011;57064;52.046;4.800;2022-09-09T15:03:51;4.95;;;2.55;;
69789;SDS011;57064;52.046;4.800;2022-09-09T15:06:23;4.22;;;2.10;;
69789;SDS011;57064;52.046;4.800;2022-09-09T15:08:50;6.82;;;2.22;;
69789;SDS011;57064;52.046;4.800;2022-09-09T15:11:17;9.02;;;2.03;;
69789;SDS011;57064;52.046;4.800;2022-09-09T15:13:45;5.75;;;1.95;;
69789;SDS011;57064;52.046;4.800;2022-09-09T15:16:16;4.93;;;1.88;;
69789;SDS011;57064;52.046;4.800;2022-09-09T15:18:43;5.85;;;2.20;;
69789;SDS011;57064;52.046;4.800;2022-09-09T15:21:20;2.65;;;1.40;;
69789;SDS011;57064;52.046;4.800;2022-09-09T15:23:48;3.65;;;1.27;;
69789;SDS011;57064;52.046;4.800;2022-09-09T15:26:14;2.83;;;1.27;;
69789;SDS011;57064;52.046;4.800;2022-09-09T15:28:42;3.25;;;1.10;;
69789;SDS011;57064;52.046;4.800;2022-09-09T15:31:10;2.22;;;1.10;;
69789;SDS011;57064;52.046;4.800;2022-09-09T15:33:51;3.70;;;1.35;;
69789;SDS011;57064;52.046;4.800;2022-09-09T15:36:25;4.35;;;1.77;;
69789;SDS011;57064;52.046;4.800;2022-09-09T15:38:57;2.60;;;1.25;;
69789;SDS011;57064;52.046;4.800;2022-09-09T15:41:27;3.05;;;1.15;;
69789;SDS011;57064;52.046;4.800;2022-09-09T15:43:54;2.95;;;1.08;;
69789;SDS011;57064;52.046;4.800;2022-09-09T15:46:28;4.57;;;1.20;;
69789;SDS011;57064;52.046;4.800;2022-09-09T15:48:58;3.92;;;1.63;;
69789;SDS011;57064;52.046;4.800;2022-09-09T15:51:30;3.75;;;1.38;;
69789;SDS011;57064;52.046;4.800;2022-09-09T15:53:57;6.05;;;1.50;;
69789;SDS011;57064;52.046;4.800;2022-09-09T15:56:25;5.05;;;1.50;;
69789;SDS011;57064;52.046;4.800;2022-09-09T15:58:52;5.72;;;1.65;;
69789;SDS011;57064;52.046;4.800;2022-09-09T16:01:20;5.93;;;1.45;;
69789;SDS011;57064;52.046;4.800;2022-09-09T16:03:46;3.47;;;1.58;;
69789;SDS011;57064;52.046;4.800;2022-09-09T16:06:15;4.72;;;1.70;;
69789;SDS011;57064;52.046;4.800;2022-09-09T16:08:44;7.55;;;2.13;;
69789;SDS011;57064;52.046;4.800;2022-09-09T16:11:12;6.68;;;2.10;;
69789;SDS011;57064;52.046;4.800;2022-09-09T16:13:41;6.03;;;2.40;;
69789;SDS011;57064;52.046;4.800;2022-09-09T16:16:09;7.20;;;2.65;;
69789;SDS011;57064;52.046;4.800;2022-09-09T16:18:38;4.75;;;2.80;;
69789;SDS011;57064;52.046;4.800;2022-09-09T16:21:06;7.32;;;2.90;;
69789;SDS011;57064;52.046;4.800;2022-09-09T16:23:36;6.78;;;2.30;;
69789;SDS011;57064;52.046;4.800;2022-09-09T16:26:02;7.65;;;2.85;;
69789;SDS011;57064;52.046;4.800;2022-09-09T16:28:28;8.23;;;3.35;;
69789;SDS011;57064;52.046;4.800;2022-09-09T16:30:54;8.55;;;3.17;;
69789;SDS011;57064;52.046;4.800;2022-09-09T16:33:20;6.75;;;3.17;;
69789;SDS011;57064;52.046;4.800;2022-09-09T16:35:47;10.32;;;3.60;;
69789;SDS011;57064;52.046;4.800;2022-09-09T16:38:14;12.18;;;4.28;;
69789;SDS011;57064;52.046;4.800;2022-09-09T16:40:40;11.35;;;4.65;;
69789;SDS011;57064;52.046;4.800;2022-09-09T16:43:06;14.25;;;4.88;;
69789;SDS011;57064;52.046;4.800;2022-09-09T16:45:40;10.43;;;4.50;;
69789;SDS011;57064;52.046;4.800;2022-09-09T16:48:10;10.07;;;4.22;;
69789;SDS011;57064;52.046;4.800;2022-09-09T16:50:36;11.82;;;4.93;;
69789;SDS011;57064;52.046;4.800;2022-09-09T16:53:04;9.52;;;4.95;;
69789;SDS011;57064;52.046;4.800;2022-09-09T16:55:32;13.15;;;6.07;;
69789;SDS011;57064;52.046;4.800;2022-09-09T16:58:02;13.68;;;5.18;;